Blackbird — WDJ4307 — position and weather

sailwx.info

Track history (hours):
 
Tides and Currents Weather Stations Pressure Air Temp Water Temp Dewpoint Dewpoint Depression Visibility Wind Speed Wind Dir Waves Ship Positions

Blackbird

Owner: PropSF, LLC, Alameda, CA. More information available from US FCC via Universal Licensing System and Coast Guard Vessel Documentation Center.

Last reported at 2018-Nov-10 03:29 UTC. Time now 2018-Nov-17 04:32 UTC.
Position N 37°50' W 122°19'.

Length 17 m; draft 1 m.

Type: Passenger vessel. MMSI: 367776390.

Date/timePositionNaut miles runAvg speedWind from/ knotsBaromVisibWave heightAir tempDewpointWater temp
2018-Nov-10 03:29N 37°50' W 122°19'512.1
2018-Nov-10 03:02N 37°54' W 122°24'1224.5
2018-Nov-10 02:32N 38°04' W 122°15'5 6.7
2018-Nov-10 01:51N 38°02' W 122°10'824.5
2018-Nov-10 01:32N 38°02' W 122°19'1020.5
2018-Nov-10 01:03N 37°55' W 122°28'714.9
2018-Nov-10 00:33N 37°52' W 122°20'1223.6
2018-Nov-10 00:02N 37°40' W 122°23'5 9.1
2018-Nov-09 23:32N 37°44' W 122°21'815.7
2018-Nov-09 23:02N 37°52' W 122°19'1224.5
2018-Nov-09 22:32N 37°40' W 122°23'4 7.6
2018-Nov-09 22:03N 37°43' W 122°21'714.2
2018-Nov-09 21:32N 37°50' W 122°19'0 0.0
2018-Nov-09 21:02N 37°50' W 122°19'0 0.0
2018-Nov-09 17:03N 37°50' W 122°19'0 4.2
2018-Nov-09 17:02N 37°50' W 122°19'1020.1
2018-Nov-09 16:33N 37°41' W 122°22'714.1
2018-Nov-09 16:02N 37°48' W 122°21'5 9.4
2018-Nov-09 15:32N 37°52' W 122°19'4 7.5
2018-Nov-09 15:02N 37°49' W 122°21'817.0
2018-Nov-09 14:33N 37°40' W 122°22'1224.0
2018-Nov-09 14:02N 37°52' W 122°19'3 6.2
2018-Nov-09 13:32N 37°55' W 122°21'2 4.6
2018-Nov-09 13:02N 37°54' W 122°24'510.3
2018-Nov-09 12:32N 37°50' W 122°19'0 0.0
2018-Nov-09 03:19N 37°50' W 122°19'0 0.0
2018-Nov-09 03:02N 37°50' W 122°19'917.3
2018-Nov-09 02:33N 37°57' W 122°26'1325.3
2018-Nov-09 02:02N 38°03' W 122°12'510.6
2018-Nov-09 01:32N 38°03' W 122°19'1121.8
2018-Nov-09 01:02N 37°55' W 122°28'815.6
2018-Nov-09 00:33N 37°52' W 122°19'1223.6
2018-Nov-09 00:02N 37°40' W 122°23'510.7
2018-Nov-08 23:33N 37°45' W 122°22'714.2
2018-Nov-08 23:02N 37°52' W 122°19'1223.9
2018-Nov-08 22:32N 37°40' W 122°23'817.3
2018-Nov-08 22:03N 37°48' W 122°21'3 5.8
2018-Nov-08 21:33N 37°50' W 122°19'0 0.1
2018-Nov-08 16:55N 37°51' W 122°19'924.4
2018-Nov-08 16:33N 37°42' W 122°21'611.5
2018-Nov-08 16:03N 37°47' W 122°21'5 9.8
2018-Nov-08 15:32N 37°52' W 122°19'4 7.9
2018-Nov-08 15:03N 37°48' W 122°21'917.2
2018-Nov-08 14:32N 37°40' W 122°22'1224.8
2018-Nov-08 14:02N 37°52' W 122°19'3 6.5
2018-Nov-08 13:32N 37°55' W 122°21'1 2.1
2018-Nov-08 13:02N 37°54' W 122°22'5 9.8
2018-Nov-08 12:32N 37°50' W 122°19'0 0.0
2018-Nov-08 03:13N 37°50' W 122°19'0 0.0
2018-Nov-08 03:02N 37°50' W 122°19'918.2
2018-Nov-08 02:33N 37°57' W 122°26'1325.5
2018-Nov-08 02:02N 38°03' W 122°11'611.4
2018-Nov-08 01:33N 38°03' W 122°19'1122.0
2018-Nov-08 01:02N 37°55' W 122°28'824.8
2018-Nov-08 00:43N 37°52' W 122°19'0 1.0
2018-Nov-08 00:32N 37°52' W 122°19'228.9
2018-Nov-08 00:29N 37°51' W 122°21'1125.8
2018-Nov-08 00:03N 37°40' W 122°23'4 8.7
2018-Nov-07 23:32N 37°44' W 122°21'816.0
2018-Nov-07 23:03N 37°52' W 122°19'1224.0
2018-Nov-07 22:31N 37°40' W 122°23'5 9.8
2018-Nov-07 22:03N 37°44' W 122°21'612.4
2018-Nov-07 21:32N 37°50' W 122°19'1 0.3
2018-Nov-07 16:54N 37°50' W 122°20'924.3
2018-Nov-07 16:33N 37°41' W 122°21'612.2
2018-Nov-07 16:03N 37°47' W 122°21'5 9.5
2018-Nov-07 15:32N 37°52' W 122°19'611.3
2018-Nov-07 15:02N 37°47' W 122°22'713.2
2018-Nov-07 14:32N 37°40' W 122°22'1224.2
2018-Nov-07 14:02N 37°52' W 122°19'3 6.4
2018-Nov-07 13:32N 37°55' W 122°21'0 0.2
2018-Nov-07 13:02N 37°55' W 122°21'5 9.5
2018-Nov-07 12:32N 37°51' W 122°19'3 0.3
2018-Nov-06 23:31N 37°50' W 122°23'3 7.5
2018-Nov-06 23:04N 37°52' W 122°19'124.6
2018-Nov-06 23:01N 37°51' W 122°20'7 7.3
2018-Nov-06 22:01N 37°44' W 122°21'712.7
2018-Nov-06 21:30N 37°50' W 122°19'0 0.0
2018-Nov-06 21:03N 37°50' W 122°19'0 0.0
2018-Nov-06 21:00N 37°50' W 122°19'0 0.0
2018-Nov-06 17:01N 37°50' W 122°19'0 6.2
2018-Nov-06 17:00N 37°50' W 122°19'1119.7
2018-Nov-06 16:27N 37°40' W 122°23'819.6
2018-Nov-06 16:03N 37°47' W 122°21'129.5
2018-Nov-06 16:00N 37°49' W 122°21'4 7.5
2018-Nov-06 15:30N 37°52' W 122°19'614.1
2018-Nov-06 15:03N 37°46' W 122°22'125.0
2018-Nov-06 15:01N 37°45' W 122°21'4 7.7
2018-Nov-06 14:30N 37°41' W 122°22'1124.6
2018-Nov-06 14:03N 37°52' W 122°19'0 2.3
2018-Nov-06 14:00N 37°52' W 122°19'3 6.9
2018-Nov-06 13:31N 37°55' W 122°21'2 4.8
2018-Nov-06 13:04N 37°54' W 122°24'126.5
2018-Nov-06 13:00N 37°53' W 122°24'5 9.4
2018-Nov-06 12:30N 37°50' W 122°19'0 0.0
2018-Nov-06 03:09N 37°50' W 122°19'0 0.0
2018-Nov-06 03:03N 37°50' W 122°19'0 0.9
2018-Nov-06 03:00N 37°50' W 122°19'1019.4
2018-Nov-06 02:30N 37°58' W 122°26'1226.7
2018-Nov-06 02:03N 38°03' W 122°12'125.7
2018-Nov-06 02:01N 38°03' W 122°11'713.4
2018-Nov-06 01:31N 38°02' W 122°19'1023.0
2018-Nov-06 01:03N 37°55' W 122°28'12 7.7
2018-Nov-05 23:30N 37°44' W 122°21'817.5
2018-Nov-05 23:04N 37°52' W 122°19'0 9.3
2018-Nov-05 23:01N 37°52' W 122°19'1224.3
2018-Nov-05 22:30N 37°40' W 122°23'4 9.6
2018-Nov-05 22:03N 37°44' W 122°21'126.3
2018-Nov-05 22:01N 37°45' W 122°21'611.8
2018-Nov-05 21:30N 37°51' W 122°21'2 4.3
2018-Nov-05 21:03N 37°50' W 122°19'0 0.0
2018-Nov-05 21:00N 37°50' W 122°19'0 0.0
2018-Nov-05 17:06N 37°50' W 122°19'0 1.1
2018-Nov-05 17:03N 37°50' W 122°19'0 2.6
2018-Nov-05 17:01N 37°50' W 122°19'1121.9
2018-Nov-05 16:30N 37°40' W 122°22'716.6
2018-Nov-05 16:04N 37°47' W 122°21'128.9
2018-Nov-05 16:01N 37°49' W 122°21'4 7.4
2018-Nov-05 15:30N 37°52' W 122°19'4 9.7
2018-Nov-05 15:03N 37°48' W 122°21'127.1
2018-Nov-05 15:00N 37°47' W 122°21'611.3
2018-Nov-05 14:30N 37°41' W 122°21'1124.8
2018-Nov-05 14:03N 37°52' W 122°19'0 3.0
2018-Nov-05 14:00N 37°52' W 122°19'3 3.4
2018-Nov-05 13:03N 37°55' W 122°21'0 4.3
2018-Nov-05 13:00N 37°55' W 122°21'5 9.4
2018-Nov-05 12:30N 37°50' W 122°19'  
2018-Nov-03 02:16N 37°50' W 122°19'1 6.9
2018-Nov-03 02:03N 37°51' W 122°21'124.7
2018-Nov-03 02:01N 37°51' W 122°22'1121.1
2018-Nov-03 01:30N 38°02' W 122°22'1013.5
2018-Nov-03 00:47N 38°02' W 122°10'725.6
2018-Nov-03 00:31N 38°03' W 122°18'1124.4
2018-Nov-03 00:04N 37°55' W 122°29'0 9.1
2018-Nov-03 00:00N 37°55' W 122°28'713.1
2018-Nov-02 23:31N 37°51' W 122°21'1123.0
2018-Nov-02 23:01N 37°40' W 122°23'0 4.8
2018-Nov-02 23:00N 37°40' W 122°23'611.7
2018-Nov-02 22:31N 37°46' W 122°22'715.0
2018-Nov-02 22:03N 37°52' W 122°19'120.7
2018-Nov-02 22:00N 37°51' W 122°20'1223.6
2018-Nov-02 21:30N 37°40' W 122°23'4 8.9
2018-Nov-02 21:04N 37°44' W 122°21'125.2
2018-Nov-02 21:00N 37°45' W 122°21'611.6
2018-Nov-02 20:30N 37°50' W 122°19'0 0.1
2018-Nov-02 16:00N 37°51' W 122°19'1122.0
2018-Nov-02 15:29N 37°40' W 122°23'817.9
2018-Nov-02 15:04N 37°48' W 122°22'126.8
2018-Nov-02 15:01N 37°49' W 122°21'4 7.1
2018-Nov-02 14:31N 37°52' W 122°19'612.6
2018-Nov-02 14:00N 37°46' W 122°22'510.0
2018-Nov-02 13:30N 37°41' W 122°22'1124.5
2018-Nov-02 13:03N 37°52' W 122°19'0 3.1
2018-Nov-02 13:00N 37°52' W 122°19'3 6.7
2018-Nov-02 12:30N 37°55' W 122°21'3 5.9
2018-Nov-02 12:04N 37°53' W 122°23'123.1
2018-Nov-02 12:01N 37°52' W 122°23'3 6.9
2018-Nov-02 11:31N 37°50' W 122°19'0 0.0
2018-Nov-02 02:09N 37°50' W 122°19'0 1.9
2018-Nov-02 02:04N 37°50' W 122°19'0 8.5
2018-Nov-02 02:00N 37°51' W 122°19'1121.2
2018-Nov-02 01:30N 38°00' W 122°24'1124.1
2018-Nov-02 01:03N 38°03' W 122°11'121.7
2018-Nov-02 01:00N 38°02' W 122°10'0 1.0
2018-Nov-02 00:52N 38°02' W 122°10'726.1
2018-Nov-02 00:36N 38°03' W 122°19'326.9
2018-Nov-02 00:30N 38°02' W 122°22'920.0
2018-Nov-02 00:03N 37°55' W 122°28'121.3
2018-Nov-02 00:00N 37°55' W 122°27'611.3
2018-Nov-01 23:31N 37°51' W 122°22'1124.4
2018-Nov-01 23:03N 37°40' W 122°22'0 4.1
2018-Nov-01 23:01N 37°40' W 122°23'612.9
2018-Nov-01 22:31N 37°46' W 122°22'612.3
2018-Nov-01 22:03N 37°52' W 122°20'128.5
2018-Nov-01 22:01N 37°51' W 122°22'1122.3
2018-Nov-01 21:30N 37°40' W 122°23'1 2.7
2018-Nov-01 21:04N 37°41' W 122°22'127.3
2018-Nov-01 21:01N 37°42' W 122°21'917.0
2018-Nov-01 20:31N 37°50' W 122°19'0 0.0
2018-Nov-01 18:52N 37°50' W 122°19'0 0.0
2018-Nov-01 18:30N 37°50' W 122°19'0 0.0
2018-Nov-01 17:22N 37°50' W 122°19'0 0.1
2018-Nov-01 17:03N 37°50' W 122°19'0 1.0
2018-Nov-01 17:00N 37°50' W 122°19'0 0.0
2018-Nov-01 16:30N 37°50' W 122°19'0 0.2
2018-Nov-01 16:04N 37°50' W 122°19'0 4.2
2018-Nov-01 16:00N 37°51' W 122°19'1121.9
2018-Nov-01 15:30N 37°40' W 122°23'919.7
2018-Nov-01 15:04N 37°48' W 122°21'123.0
2018-Nov-01 15:01N 37°50' W 122°22'4 3.7
2018-Nov-01 14:04N 37°46' W 122°22'126.8
2018-Nov-01 14:01N 37°45' W 122°22'2 4.5
2018-Nov-01 13:30N 37°42' W 122°21'1021.7
2018-Nov-01 13:03N 37°52' W 122°19'0 1.8
2018-Nov-01 13:00N 37°52' W 122°19'3 6.8
2018-Nov-01 12:30N 37°55' W 122°21'1 3.2
2018-Nov-01 12:03N 37°54' W 122°23'116.6
2018-Nov-01 12:00N 37°54' W 122°24'510.8
2018-Nov-01 11:30N 37°50' W 122°19'0 0.0
2018-Nov-01 02:18N 37°50' W 122°19'0 0.8
2018-Nov-01 02:03N 37°50' W 122°19'0 3.8
2018-Nov-01 02:01N 37°51' W 122°19'1020.4
2018-Nov-01 01:30N 37°60' W 122°25'1023.2
2018-Nov-01 01:04N 38°04' W 122°13'125.1
2018-Nov-01 01:00N 38°03' W 122°11'713.4
2018-Nov-01 00:30N 38°02' W 122°20'1022.3
2018-Nov-01 00:04N 37°55' W 122°28'117.0
2018-Nov-01 00:01N 37°55' W 122°27'611.8
2018-Oct-31 23:31N 37°51' W 122°22'1124.4
2018-Oct-31 23:03N 37°40' W 122°22'0 4.6
2018-Oct-31 23:00N 37°40' W 122°23'612.0
2018-Oct-31 22:31N 37°46' W 122°22'614.2
2018-Oct-31 22:04N 37°52' W 122°19'229.7
2018-Oct-31 22:00N 37°51' W 122°21'1122.8
2018-Oct-31 21:30N 37°40' W 122°23'0 0.4
2018-Oct-31 21:04N 37°40' W 122°22'114.1
2018-Oct-31 21:00N 37°40' W 122°22'1020.3
2018-Oct-31 20:30N 37°50' W 122°19'0 0.1
2018-Oct-31 20:02N 37°50' W 122°19'0 0.2
2018-Oct-31 20:00N 37°50' W 122°19'0 0.0
2018-Oct-31 17:36N 37°50' W 122°19'0 0.6
2018-Oct-31 17:30N 37°50' W 122°19'510.1
2018-Oct-31 17:03N 37°46' W 122°17'0 1.9
2018-Oct-31 17:00N 37°46' W 122°17'0 0.0
2018-Oct-31 16:30N 37°46' W 122°17'0 0.0
2018-Oct-31 16:03N 37°46' W 122°17'0 0.0
2018-Oct-31 16:00N 37°46' W 122°17'713.4
2018-Oct-31 15:27N 37°40' W 122°23'819.6
2018-Oct-31 15:04N 37°47' W 122°21'229.7
2018-Oct-31 15:00N 37°49' W 122°21'1 0.7
2018-Oct-31 14:04N 37°48' W 122°21'231.6
2018-Oct-31 14:00N 37°47' W 122°22'5 9.9
2018-Oct-31 13:31N 37°42' W 122°21'1123.3
2018-Oct-31 13:03N 37°52' W 122°19'0 0.7
2018-Oct-31 13:00N 37°52' W 122°19'3 6.8
2018-Oct-31 12:30N 37°55' W 122°21'1 2.7
2018-Oct-31 12:03N 37°54' W 122°23'115.5
2018-Oct-31 12:01N 37°54' W 122°24'611.0
2018-Oct-31 11:30N 37°50' W 122°19'  
Track history (hours):
 
Tides and Currents Weather Stations Pressure Air Temp Water Temp Dewpoint Dewpoint Depression Visibility Wind Speed Wind Dir Waves Ship Positions

Blackbird

Owner: PropSF, LLC, Alameda, CA. More information available from US FCC via Universal Licensing System and Coast Guard Vessel Documentation Center.

Last reported at 2018-Nov-10 03:29 UTC. Time now 2018-Nov-17 04:32 UTC.
Position N 37°50' W 122°19'.

Length 17 m; draft 1 m.

Type: Passenger vessel. MMSI: 367776390.

Date/timePositionNaut miles runAvg speedWind from/ knotsBaromVisibWave heightAir tempDewpointWater temp
2018-Nov-10 03:29N 37°50' W 122°19'512.1
2018-Nov-10 03:02N 37°54' W 122°24'1224.5
2018-Nov-10 02:32N 38°04' W 122°15'5 6.7
2018-Nov-10 01:51N 38°02' W 122°10'824.5
2018-Nov-10 01:32N 38°02' W 122°19'1020.5
2018-Nov-10 01:03N 37°55' W 122°28'714.9
2018-Nov-10 00:33N 37°52' W 122°20'1223.6
2018-Nov-10 00:02N 37°40' W 122°23'5 9.1
2018-Nov-09 23:32N 37°44' W 122°21'815.7
2018-Nov-09 23:02N 37°52' W 122°19'1224.5
2018-Nov-09 22:32N 37°40' W 122°23'4 7.6
2018-Nov-09 22:03N 37°43' W 122°21'714.2
2018-Nov-09 21:32N 37°50' W 122°19'0 0.0
2018-Nov-09 21:02N 37°50' W 122°19'0 0.0
2018-Nov-09 17:03N 37°50' W 122°19'0 4.2
2018-Nov-09 17:02N 37°50' W 122°19'1020.1
2018-Nov-09 16:33N 37°41' W 122°22'714.1
2018-Nov-09 16:02N 37°48' W 122°21'5 9.4
2018-Nov-09 15:32N 37°52' W 122°19'4 7.5
2018-Nov-09 15:02N 37°49' W 122°21'817.0
2018-Nov-09 14:33N 37°40' W 122°22'1224.0
2018-Nov-09 14:02N 37°52' W 122°19'3 6.2
2018-Nov-09 13:32N 37°55' W 122°21'2 4.6
2018-Nov-09 13:02N 37°54' W 122°24'510.3
2018-Nov-09 12:32N 37°50' W 122°19'0 0.0
2018-Nov-09 03:19N 37°50' W 122°19'0 0.0
2018-Nov-09 03:02N 37°50' W 122°19'917.3
2018-Nov-09 02:33N 37°57' W 122°26'1325.3
2018-Nov-09 02:02N 38°03' W 122°12'510.6
2018-Nov-09 01:32N 38°03' W 122°19'1121.8
2018-Nov-09 01:02N 37°55' W 122°28'815.6
2018-Nov-09 00:33N 37°52' W 122°19'1223.6
2018-Nov-09 00:02N 37°40' W 122°23'510.7
2018-Nov-08 23:33N 37°45' W 122°22'714.2
2018-Nov-08 23:02N 37°52' W 122°19'1223.9
2018-Nov-08 22:32N 37°40' W 122°23'817.3
2018-Nov-08 22:03N 37°48' W 122°21'3 5.8
2018-Nov-08 21:33N 37°50' W 122°19'0 0.1
2018-Nov-08 16:55N 37°51' W 122°19'924.4
2018-Nov-08 16:33N 37°42' W 122°21'611.5
2018-Nov-08 16:03N 37°47' W 122°21'5 9.8
2018-Nov-08 15:32N 37°52' W 122°19'4 7.9
2018-Nov-08 15:03N 37°48' W 122°21'917.2
2018-Nov-08 14:32N 37°40' W 122°22'1224.8
2018-Nov-08 14:02N 37°52' W 122°19'3 6.5
2018-Nov-08 13:32N 37°55' W 122°21'1 2.1
2018-Nov-08 13:02N 37°54' W 122°22'5 9.8
2018-Nov-08 12:32N 37°50' W 122°19'0 0.0
2018-Nov-08 03:13N 37°50' W 122°19'0 0.0
2018-Nov-08 03:02N 37°50' W 122°19'918.2
2018-Nov-08 02:33N 37°57' W 122°26'1325.5
2018-Nov-08 02:02N 38°03' W 122°11'611.4
2018-Nov-08 01:33N 38°03' W 122°19'1122.0
2018-Nov-08 01:02N 37°55' W 122°28'824.8
2018-Nov-08 00:43N 37°52' W 122°19'0 1.0
2018-Nov-08 00:32N 37°52' W 122°19'228.9
2018-Nov-08 00:29N 37°51' W 122°21'1125.8
2018-Nov-08 00:03N 37°40' W 122°23'4 8.7
2018-Nov-07 23:32N 37°44' W 122°21'816.0
2018-Nov-07 23:03N 37°52' W 122°19'1224.0
2018-Nov-07 22:31N 37°40' W 122°23'5 9.8
2018-Nov-07 22:03N 37°44' W 122°21'612.4
2018-Nov-07 21:32N 37°50' W 122°19'1 0.3
2018-Nov-07 16:54N 37°50' W 122°20'924.3
2018-Nov-07 16:33N 37°41' W 122°21'612.2
2018-Nov-07 16:03N 37°47' W 122°21'5 9.5
2018-Nov-07 15:32N 37°52' W 122°19'611.3
2018-Nov-07 15:02N 37°47' W 122°22'713.2
2018-Nov-07 14:32N 37°40' W 122°22'1224.2
2018-Nov-07 14:02N 37°52' W 122°19'3 6.4
2018-Nov-07 13:32N 37°55' W 122°21'0 0.2
2018-Nov-07 13:02N 37°55' W 122°21'5 9.5
2018-Nov-07 12:32N 37°51' W 122°19'3 0.3
2018-Nov-06 23:31N 37°50' W 122°23'3 7.5
2018-Nov-06 23:04N 37°52' W 122°19'124.6
2018-Nov-06 23:01N 37°51' W 122°20'7 7.3
2018-Nov-06 22:01N 37°44' W 122°21'712.7
2018-Nov-06 21:30N 37°50' W 122°19'0 0.0
2018-Nov-06 21:03N 37°50' W 122°19'0 0.0
2018-Nov-06 21:00N 37°50' W 122°19'0 0.0
2018-Nov-06 17:01N 37°50' W 122°19'0 6.2
2018-Nov-06 17:00N 37°50' W 122°19'1119.7
2018-Nov-06 16:27N 37°40' W 122°23'819.6
2018-Nov-06 16:03N 37°47' W 122°21'129.5
2018-Nov-06 16:00N 37°49' W 122°21'4 7.5
2018-Nov-06 15:30N 37°52' W 122°19'614.1
2018-Nov-06 15:03N 37°46' W 122°22'125.0
2018-Nov-06 15:01N 37°45' W 122°21'4 7.7
2018-Nov-06 14:30N 37°41' W 122°22'1124.6
2018-Nov-06 14:03N 37°52' W 122°19'0 2.3
2018-Nov-06 14:00N 37°52' W 122°19'3 6.9
2018-Nov-06 13:31N 37°55' W 122°21'2 4.8
2018-Nov-06 13:04N 37°54' W 122°24'126.5
2018-Nov-06 13:00N 37°53' W 122°24'5 9.4
2018-Nov-06 12:30N 37°50' W 122°19'0 0.0
2018-Nov-06 03:09N 37°50' W 122°19'0 0.0
2018-Nov-06 03:03N 37°50' W 122°19'0 0.9
2018-Nov-06 03:00N 37°50' W 122°19'1019.4
2018-Nov-06 02:30N 37°58' W 122°26'1226.7
2018-Nov-06 02:03N 38°03' W 122°12'125.7
2018-Nov-06 02:01N 38°03' W 122°11'713.4
2018-Nov-06 01:31N 38°02' W 122°19'1023.0
2018-Nov-06 01:03N 37°55' W 122°28'12 7.7
2018-Nov-05 23:30N 37°44' W 122°21'817.5
2018-Nov-05 23:04N 37°52' W 122°19'0 9.3
2018-Nov-05 23:01N 37°52' W 122°19'1224.3
2018-Nov-05 22:30N 37°40' W 122°23'4 9.6
2018-Nov-05 22:03N 37°44' W 122°21'126.3
2018-Nov-05 22:01N 37°45' W 122°21'611.8
2018-Nov-05 21:30N 37°51' W 122°21'2 4.3
2018-Nov-05 21:03N 37°50' W 122°19'0 0.0
2018-Nov-05 21:00N 37°50' W 122°19'0 0.0
2018-Nov-05 17:06N 37°50' W 122°19'0 1.1
2018-Nov-05 17:03N 37°50' W 122°19'0 2.6
2018-Nov-05 17:01N 37°50' W 122°19'1121.9
2018-Nov-05 16:30N 37°40' W 122°22'716.6
2018-Nov-05 16:04N 37°47' W 122°21'128.9
2018-Nov-05 16:01N 37°49' W 122°21'4 7.4
2018-Nov-05 15:30N 37°52' W 122°19'4 9.7
2018-Nov-05 15:03N 37°48' W 122°21'127.1
2018-Nov-05 15:00N 37°47' W 122°21'611.3
2018-Nov-05 14:30N 37°41' W 122°21'1124.8
2018-Nov-05 14:03N 37°52' W 122°19'0 3.0
2018-Nov-05 14:00N 37°52' W 122°19'3 3.4
2018-Nov-05 13:03N 37°55' W 122°21'0 4.3
2018-Nov-05 13:00N 37°55' W 122°21'5 9.4
2018-Nov-05 12:30N 37°50' W 122°19'  
2018-Nov-03 02:16N 37°50' W 122°19'1 6.9
2018-Nov-03 02:03N 37°51' W 122°21'124.7
2018-Nov-03 02:01N 37°51' W 122°22'1121.1
2018-Nov-03 01:30N 38°02' W 122°22'1013.5
2018-Nov-03 00:47N 38°02' W 122°10'725.6
2018-Nov-03 00:31N 38°03' W 122°18'1124.4
2018-Nov-03 00:04N 37°55' W 122°29'0 9.1
2018-Nov-03 00:00N 37°55' W 122°28'713.1
2018-Nov-02 23:31N 37°51' W 122°21'1123.0
2018-Nov-02 23:01N 37°40' W 122°23'0 4.8
2018-Nov-02 23:00N 37°40' W 122°23'611.7
2018-Nov-02 22:31N 37°46' W 122°22'715.0
2018-Nov-02 22:03N 37°52' W 122°19'120.7
2018-Nov-02 22:00N 37°51' W 122°20'1223.6
2018-Nov-02 21:30N 37°40' W 122°23'4 8.9
2018-Nov-02 21:04N 37°44' W 122°21'125.2
2018-Nov-02 21:00N 37°45' W 122°21'611.6
2018-Nov-02 20:30N 37°50' W 122°19'0 0.1
2018-Nov-02 16:00N 37°51' W 122°19'1122.0
2018-Nov-02 15:29N 37°40' W 122°23'817.9
2018-Nov-02 15:04N 37°48' W 122°22'126.8
2018-Nov-02 15:01N 37°49' W 122°21'4 7.1
2018-Nov-02 14:31N 37°52' W 122°19'612.6
2018-Nov-02 14:00N 37°46' W 122°22'510.0
2018-Nov-02 13:30N 37°41' W 122°22'1124.5
2018-Nov-02 13:03N 37°52' W 122°19'0 3.1
2018-Nov-02 13:00N 37°52' W 122°19'3 6.7
2018-Nov-02 12:30N 37°55' W 122°21'3 5.9
2018-Nov-02 12:04N 37°53' W 122°23'123.1
2018-Nov-02 12:01N 37°52' W 122°23'3 6.9
2018-Nov-02 11:31N 37°50' W 122°19'0 0.0
2018-Nov-02 02:09N 37°50' W 122°19'0 1.9
2018-Nov-02 02:04N 37°50' W 122°19'0 8.5
2018-Nov-02 02:00N 37°51' W 122°19'1121.2
2018-Nov-02 01:30N 38°00' W 122°24'1124.1
2018-Nov-02 01:03N 38°03' W 122°11'121.7
2018-Nov-02 01:00N 38°02' W 122°10'0 1.0
2018-Nov-02 00:52N 38°02' W 122°10'726.1
2018-Nov-02 00:36N 38°03' W 122°19'326.9
2018-Nov-02 00:30N 38°02' W 122°22'920.0
2018-Nov-02 00:03N 37°55' W 122°28'121.3
2018-Nov-02 00:00N 37°55' W 122°27'611.3
2018-Nov-01 23:31N 37°51' W 122°22'1124.4
2018-Nov-01 23:03N 37°40' W 122°22'0 4.1
2018-Nov-01 23:01N 37°40' W 122°23'612.9
2018-Nov-01 22:31N 37°46' W 122°22'612.3
2018-Nov-01 22:03N 37°52' W 122°20'128.5
2018-Nov-01 22:01N 37°51' W 122°22'1122.3
2018-Nov-01 21:30N 37°40' W 122°23'1 2.7
2018-Nov-01 21:04N 37°41' W 122°22'127.3
2018-Nov-01 21:01N 37°42' W 122°21'917.0
2018-Nov-01 20:31N 37°50' W 122°19'0 0.0
2018-Nov-01 18:52N 37°50' W 122°19'0 0.0
2018-Nov-01 18:30N 37°50' W 122°19'0 0.0
2018-Nov-01 17:22N 37°50' W 122°19'0 0.1
2018-Nov-01 17:03N 37°50' W 122°19'0 1.0
2018-Nov-01 17:00N 37°50' W 122°19'0 0.0
2018-Nov-01 16:30N 37°50' W 122°19'0 0.2
2018-Nov-01 16:04N 37°50' W 122°19'0 4.2
2018-Nov-01 16:00N 37°51' W 122°19'1121.9
2018-Nov-01 15:30N 37°40' W 122°23'919.7
2018-Nov-01 15:04N 37°48' W 122°21'123.0
2018-Nov-01 15:01N 37°50' W 122°22'4 3.7
2018-Nov-01 14:04N 37°46' W 122°22'126.8
2018-Nov-01 14:01N 37°45' W 122°22'2 4.5
2018-Nov-01 13:30N 37°42' W 122°21'1021.7
2018-Nov-01 13:03N 37°52' W 122°19'0 1.8
2018-Nov-01 13:00N 37°52' W 122°19'3 6.8
2018-Nov-01 12:30N 37°55' W 122°21'1 3.2
2018-Nov-01 12:03N 37°54' W 122°23'116.6
2018-Nov-01 12:00N 37°54' W 122°24'510.8
2018-Nov-01 11:30N 37°50' W 122°19'0 0.0
2018-Nov-01 02:18N 37°50' W 122°19'0 0.8
2018-Nov-01 02:03N 37°50' W 122°19'0 3.8
2018-Nov-01 02:01N 37°51' W 122°19'1020.4
2018-Nov-01 01:30N 37°60' W 122°25'1023.2
2018-Nov-01 01:04N 38°04' W 122°13'125.1
2018-Nov-01 01:00N 38°03' W 122°11'713.4
2018-Nov-01 00:30N 38°02' W 122°20'1022.3
2018-Nov-01 00:04N 37°55' W 122°28'117.0
2018-Nov-01 00:01N 37°55' W 122°27'611.8
2018-Oct-31 23:31N 37°51' W 122°22'1124.4
2018-Oct-31 23:03N 37°40' W 122°22'0 4.6
2018-Oct-31 23:00N 37°40' W 122°23'612.0
2018-Oct-31 22:31N 37°46' W 122°22'614.2
2018-Oct-31 22:04N 37°52' W 122°19'229.7
2018-Oct-31 22:00N 37°51' W 122°21'1122.8
2018-Oct-31 21:30N 37°40' W 122°23'0 0.4
2018-Oct-31 21:04N 37°40' W 122°22'114.1
2018-Oct-31 21:00N 37°40' W 122°22'1020.3
2018-Oct-31 20:30N 37°50' W 122°19'0 0.1
2018-Oct-31 20:02N 37°50' W 122°19'0 0.2
2018-Oct-31 20:00N 37°50' W 122°19'0 0.0
2018-Oct-31 17:36N 37°50' W 122°19'0 0.6
2018-Oct-31 17:30N 37°50' W 122°19'510.1
2018-Oct-31 17:03N 37°46' W 122°17'0 1.9
2018-Oct-31 17:00N 37°46' W 122°17'0 0.0
2018-Oct-31 16:30N 37°46' W 122°17'0 0.0
2018-Oct-31 16:03N 37°46' W 122°17'0 0.0
2018-Oct-31 16:00N 37°46' W 122°17'713.4
2018-Oct-31 15:27N 37°40' W 122°23'819.6
2018-Oct-31 15:04N 37°47' W 122°21'229.7
2018-Oct-31 15:00N 37°49' W 122°21'1 0.7
2018-Oct-31 14:04N 37°48' W 122°21'231.6
2018-Oct-31 14:00N 37°47' W 122°22'5 9.9
2018-Oct-31 13:31N 37°42' W 122°21'1123.3
2018-Oct-31 13:03N 37°52' W 122°19'0 0.7
2018-Oct-31 13:00N 37°52' W 122°19'3 6.8
2018-Oct-31 12:30N 37°55' W 122°21'1 2.7
2018-Oct-31 12:03N 37°54' W 122°23'115.5
2018-Oct-31 12:01N 37°54' W 122°24'611.0
2018-Oct-31 11:30N 37°50' W 122°19'  

Dump ship's entire track history